Alger, Michigan
Current Conditions -  °F | °C
As of 4:53 AM on Thursday 23 Oct 2014 (Local Time) from KHTL Reporting Station
Moderate Fog Moderate Fog  
Wind Chill: 24°   Ceiling: 100
Heat Index: 24°   Visibility: 0.25mi
Dew Point: 23°   Wind: 3mph
Humidity: 96%   Direction: 70°ENE
Pressure: 30.24"   Gusts: NA
Location:  44.13°N, 84.12°W
Report Text: KHTL 230853Z AUTO 07003KT 1/4SM FZFG VV001 M04/M05 A3024 RMK AO2 SLP253 I1000 I3000 T10441050 58015
Loading
Personal Weather Stations






























Interactive Weather Map
Tropical Storm Tracking
New forecast layout! Learn more

10-Day Weather Forecast

Advertisements
Track Severe Weather on mobile